Terminal Aerodrome Forecast
Issued by NWS

Home | Current Version | Previous Version | Text Only | Print | Product List | Glossary On
Versions: 1 2 3 4 5 6 7 8 9 10 11 12 13 14 15 16 17 18 19 20 21 22 23 24 25 26 27 28
000
FTUS44 KBMX 241005 AAA
TAFTCL
TAF AMD
KTCL 241005Z 2410/2506 19005KT 5SM SHRA OVC007
     FM241500 30005KT P6SM BKN015
     FM241800 33006KT P6SM VCSH BKN035
     FM242100 34008KT P6SM BKN120=

USA.gov is the U.S. government's official web portal to all federal, state and local government web resources and services.